Time;durP1;ratioP1;P1;durP2;ratioP2;P2;SDS_P1;SDS_P2;PMS_P1;PMS_P2;Temp;Humidity;BMP_temperature;BMP_pressure;BME280_temperature;BME280_humidity;BME280_pressure;Samples;Min_cycle;Max_cycle;Signal;HPM_P1;HPM_P2
2021/12/16 00:01:52;;;;;;;;;;;;;;;;;;5025734;28;19931;-80
2021/12/16 00:34:58;;;;;;;;;;;;;;;;;;5020598;28;19921;-81
2021/12/16 00:37:24;;;;;;;;;;;;;;;;;;5035822;28;20312;-81
2021/12/16 00:39:49;;;;;;;;;;;;;;;;;;5015147;28;19968;-81
2021/12/16 00:48:07;;;;;;;;;;;;;;;;;;5025031;28;20016;-81
2021/12/16 00:55:51;;;;;;;;;;;;;;;;;;5034927;28;20388;-81
2021/12/16 00:58:18;;;;;;;;;;;;;;;;;;5018631;28;19921;-81
2021/12/16 01:00:55;;;;;;;;;;;;;;;;;;5035884;28;19960;-80
2021/12/16 01:06:06;;;;;;;;;;;;;;;;;;5035750;28;19960;-80
2021/12/16 01:49:14;;;;;;;;;;;;;;;;;;5032969;28;19929;-80
2021/12/16 01:54:44;;;;;;;;;;;;;;;;;;5091936;28;19982;-80
2021/12/16 01:57:19;;;;;;;;;;;;;;;;;;5084772;28;20365;-80
2021/12/16 01:59:47;;;;;;;;;;;;;;;;;;5064283;28;19916;-80
2021/12/16 02:02:37;;;;;;;;;;;;;;;;;;5070040;28;19986;-80
2021/12/16 02:07:54;;;;;;;;;;;;;;;;;;5059234;28;20003;-80
2021/12/16 02:10:18;;;;;;;;;;;;;;;;;;5057796;28;19920;-80
2021/12/16 02:32:15;;;;;;;;;;;;;;;;;;5061399;28;20007;-82
2021/12/16 02:37:29;;;;;;;;;;;;;;;;;;5060895;28;20293;-82
2021/12/16 02:39:54;;;;;;;;;;;;;;;;;;5064500;28;20408;-81
2021/12/16 02:42:23;;;;;;;;;;;;;;;;;;5067321;28;19917;-82
2021/12/16 02:50:18;;;;;;;;;;;;;;;;;;5007661;28;19921;-81
2021/12/16 02:52:43;;;;;;;;;;;;;;;;;;4992094;28;19918;-82
2021/12/16 02:55:12;;;;;;;;;;;;;;;;;;5036070;28;19959;-81
2021/12/16 02:57:46;;;;;;;;;;;;;;;;;;5079884;28;20443;-81
2021/12/16 03:00:13;;;;;;;;;;;;;;;;;;5061178;28;19917;-80
2021/12/16 03:02:39;;;;;;;;;;;;;;;;;;5064178;28;19926;-80
2021/12/16 03:05:04;;;;;;;;;;;;;;;;;;5052942;28;20450;-80
2021/12/16 03:07:30;;;;;;;;;;;;;;;;;;5051350;28;19916;-80
2021/12/16 03:12:50;;;;;;;;;;;;;;;;;;5054433;28;20012;-81
2021/12/16 03:15:38;;;;;;;;;;;;;;;;;;5036913;28;19913;-81
2021/12/16 03:26:04;;;;;;;;;;;;;;;;;;5080598;28;19999;-81
2021/12/16 03:38:47;;;;;;;;;;;;;;;;;;5064625;28;19945;-80
2021/12/16 03:41:12;;;;;;;;;;;;;;;;;;5072017;28;19975;-80
2021/12/16 03:43:38;;;;;;;;;;;;;;;;;;5042656;28;20356;-80
2021/12/16 03:48:43;;;;;;;;;;;;;;;;;;5059082;28;20317;-82
2021/12/16 03:51:24;;;;;;;;;;;;;;;;;;5035677;28;19931;-81
2021/12/16 03:53:50;;;;;;;;;;;;;;;;;;5045212;28;20011;-81
2021/12/16 03:56:16;;;;;;;;;;;;;;;;;;5036210;28;19971;-81
2021/12/16 03:58:41;;;;;;;;;;;;;;;;;;5053235;28;20025;-81
2021/12/16 04:01:10;;;;;;;;;;;;;;;;;;5047382;28;19917;-81
2021/12/16 04:03:38;;;;;;;;;;;;;;;;;;5052741;28;19927;-80
2021/12/16 04:06:03;;;;;;;;;;;;;;;;;;5073941;28;19917;-81
2021/12/16 04:08:29;;;;;;;;;;;;;;;;;;5070919;28;19920;-80
2021/12/16 04:11:19;;;;;;;;;;;;;;;;;;5045941;28;19967;-81
2021/12/16 04:13:55;;;;;;;;;;;;;;;;;;5037567;28;19917;-81
2021/12/16 04:16:30;;;;;;;;;;;;;;;;;;5078063;28;19928;-81
2021/12/16 04:18:59;;;;;;;;;;;;;;;;;;5072242;28;20428;-81
2021/12/16 04:21:26;;;;;;;;;;;;;;;;;;5065920;28;19916;-81
2021/12/16 04:23:54;;;;;;;;;;;;;;;;;;5048036;28;19974;-81
2021/12/16 04:26:20;;;;;;;;;;;;;;;;;;5050070;28;19917;-81
2021/12/16 04:28:45;;;;;;;;;;;;;;;;;;5047510;28;19917;-80
2021/12/16 04:31:10;;;;;;;;;;;;;;;;;;5084539;28;20537;-80
2021/12/16 04:33:39;;;;;;;;;;;;;;;;;;5046551;28;19932;-81
2021/12/16 04:36:05;;;;;;;;;;;;;;;;;;5037471;28;20039;-82
2021/12/16 04:38:30;;;;;;;;;;;;;;;;;;5073848;28;19913;-82
2021/12/16 04:40:55;;;;;;;;;;;;;;;;;;5041659;28;19923;-81
2021/12/16 04:43:22;;;;;;;;;;;;;;;;;;5050188;28;19927;-82
2021/12/16 04:45:48;;;;;;;;;;;;;;;;;;5057058;28;19951;-81
2021/12/16 04:48:13;;;;;;;;;;;;;;;;;;5071056;28;20006;-81
2021/12/16 04:50:38;;;;;;;;;;;;;;;;;;5024965;28;20039;-81
2021/12/16 04:53:03;;;;;;;;;;;;;;;;;;5065631;28;19988;-81
2021/12/16 04:55:29;;;;;;;;;;;;;;;;;;5039620;28;19924;-81
2021/12/16 04:57:54;;;;;;;;;;;;;;;;;;5056568;28;19917;-81
2021/12/16 05:00:20;;;;;;;;;;;;;;;;;;5074003;28;19936;-81
2021/12/16 05:02:46;;;;;;;;;;;;;;;;;;5044970;28;19917;-81
2021/12/16 05:05:11;;;;;;;;;;;;;;;;;;5053527;28;19961;-81
2021/12/16 05:07:40;;;;;;;;;;;;;;;;;;5049783;28;20334;-80
2021/12/16 05:10:10;;;;;;;;;;;;;;;;;;5083018;28;19935;-81
2021/12/16 05:12:38;;;;;;;;;;;;;;;;;;5039937;28;19932;-81
2021/12/16 05:15:06;;;;;;;;;;;;;;;;;;5034617;28;19913;-80
2021/12/16 05:17:41;;;;;;;;;;;;;;;;;;5052715;28;19927;-81
2021/12/16 05:20:09;;;;;;;;;;;;;;;;;;5052801;28;19916;-81
2021/12/16 05:25:52;;;;;;;;;;;;;;;;;;5033335;28;19924;-81
2021/12/16 05:28:04;;;;;;;;;;;;;;;;;;5045314;28;20016;-81
2021/12/16 05:30:30;;;;;;;;;;;;;;;;;;5041420;28;20015;-82
2021/12/16 05:32:55;;;;;;;;;;;;;;;;;;5049957;28;20015;-81
2021/12/16 05:35:21;;;;;;;;;;;;;;;;;;5034183;28;20418;-82
2021/12/16 05:38:00;;;;;;;;;;;;;;;;;;5077341;28;19928;-83
2021/12/16 05:40:26;;;;;;;;;;;;;;;;;;5044506;28;19917;-83
2021/12/16 05:42:53;;;;;;;;;;;;;;;;;;5047295;28;20254;-83
2021/12/16 05:45:19;;;;;;;;;;;;;;;;;;5036507;28;19921;-83
2021/12/16 05:47:44;;;;;;;;;;;;;;;;;;5045130;28;19940;-83
2021/12/16 05:50:10;;;;;;;;;;;;;;;;;;5043596;28;19987;-83
2021/12/16 05:52:38;;;;;;;;;;;;;;;;;;5053833;28;20374;-83
2021/12/16 05:55:24;;;;;;;;;;;;;;;;;;5048098;28;19916;-83
2021/12/16 05:57:52;;;;;;;;;;;;;;;;;;5043081;28;19960;-82
2021/12/16 06:00:19;;;;;;;;;;;;;;;;;;5048951;28;20300;-81
2021/12/16 06:02:44;;;;;;;;;;;;;;;;;;5051712;28;20292;-81
2021/12/16 06:05:09;;;;;;;;;;;;;;;;;;5067917;28;19921;-81
2021/12/16 06:07:35;;;;;;;;;;;;;;;;;;5041610;28;19982;-82
2021/12/16 06:10:02;;;;;;;;;;;;;;;;;;5048321;28;19921;-82
2021/12/16 06:12:28;;;;;;;;;;;;;;;;;;5068686;28;19917;-82
2021/12/16 06:28:02;;;;;;;;;;;;;;;;;;5073202;28;19986;-82
2021/12/16 06:30:28;;;;;;;;;;;;;;;;;;5051227;28;19921;-82
2021/12/16 06:32:54;;;;;;;;;;;;;;;;;;5053457;28;19917;-82
2021/12/16 06:35:20;;;;;;;;;;;;;;;;;;5044393;28;19913;-82
2021/12/16 06:37:47;;;;;;;;;;;;;;;;;;5055949;28;20529;-83
2021/12/16 06:40:13;;;;;;;;;;;;;;;;;;5055522;28;19917;-82
2021/12/16 06:42:40;;;;;;;;;;;;;;;;;;5059368;28;19917;-84
2021/12/16 06:45:11;;;;;;;;;;;;;;;;;;5041510;28;19928;-84
2021/12/16 06:48:01;;;;;;;;;;;;;;;;;;5085637;28;19916;-83
2021/12/16 06:50:51;;;;;;;;;;;;;;;;;;5068018;28;19924;-83
2021/12/16 06:53:24;;;;;;;;;;;;;;;;;;5082204;28;19917;-81
2021/12/16 07:01:38;;;;;;;;;;;;;;;;;;5049834;28;20266;-83
2021/12/16 07:03:51;;;;;;;;;;;;;;;;;;5077752;28;20369;-82
2021/12/16 07:06:18;;;;;;;;;;;;;;;;;;5052346;28;19931;-82
2021/12/16 07:08:44;;;;;;;;;;;;;;;;;;5083880;28;19927;-82
2021/12/16 07:11:09;;;;;;;;;;;;;;;;;;5050973;28;19921;-82
2021/12/16 07:13:41;;;;;;;;;;;;;;;;;;5053019;28;19970;-82
2021/12/16 07:16:06;;;;;;;;;;;;;;;;;;5036597;28;19913;-82
2021/12/16 07:18:32;;;;;;;;;;;;;;;;;;5052267;28;20311;-82
2021/12/16 07:20:57;;;;;;;;;;;;;;;;;;5081625;28;19960;-82
2021/12/16 07:23:22;;;;;;;;;;;;;;;;;;5045725;28;19964;-82
2021/12/16 07:25:48;;;;;;;;;;;;;;;;;;5045954;28;20338;-82
2021/12/16 07:28:16;;;;;;;;;;;;;;;;;;5051370;28;19925;-83
2021/12/16 07:30:44;;;;;;;;;;;;;;;;;;5088959;28;20019;-83
2021/12/16 07:33:09;;;;;;;;;;;;;;;;;;5046460;28;19920;-83
2021/12/16 07:35:37;;;;;;;;;;;;;;;;;;5049761;28;19927;-83
2021/12/16 07:38:06;;;;;;;;;;;;;;;;;;5044152;28;20329;-83
2021/12/16 07:40:34;;;;;;;;;;;;;;;;;;5081343;28;19917;-83
2021/12/16 07:43:12;;;;;;;;;;;;;;;;;;5046913;28;19920;-83
2021/12/16 07:45:39;;;;;;;;;;;;;;;;;;5083374;28;19917;-84
2021/12/16 07:48:04;;;;;;;;;;;;;;;;;;5038185;28;19959;-84
2021/12/16 07:50:32;;;;;;;;;;;;;;;;;;5055027;28;19925;-82
2021/12/16 07:53:00;;;;;;;;;;;;;;;;;;5066522;28;19925;-82
2021/12/16 07:55:31;;;;;;;;;;;;;;;;;;5060309;28;19976;-82
2021/12/16 07:58:09;;;;;;;;;;;;;;;;;;5084682;28;20011;-83
2021/12/16 08:00:40;;;;;;;;;;;;;;;;;;5051477;28;19920;-83
2021/12/16 08:03:09;;;;;;;;;;;;;;;;;;5044794;28;19917;-83
2021/12/16 08:05:37;;;;;;;;;;;;;;;;;;5077971;28;19970;-84
2021/12/16 08:08:03;;;;;;;;;;;;;;;;;;5035355;28;19923;-84
2021/12/16 08:10:29;;;;;;;;;;;;;;;;;;5076750;28;20067;-84
2021/12/16 08:12:54;;;;;;;;;;;;;;;;;;5069247;28;19912;-82
2021/12/16 08:15:19;;;;;;;;;;;;;;;;;;5062564;28;20014;-84
2021/12/16 08:17:45;;;;;;;;;;;;;;;;;;5046516;28;19917;-84
2021/12/16 08:20:18;;;;;;;;;;;;;;;;;;5088273;28;19925;-84
2021/12/16 08:22:47;;;;;;;;;;;;;;;;;;5080107;28;19917;-84
2021/12/16 08:25:22;;;;;;;;;;;;;;;;;;5043099;28;20035;-84
2021/12/16 08:27:52;;;;;;;;;;;;;;;;;;5068177;28;19932;-85
2021/12/16 08:30:18;;;;;;;;;;;;;;;;;;5081830;28;19925;-87
2021/12/16 08:32:48;;;;;;;;;;;;;;;;;;5052771;28;19916;-88
2021/12/16 08:35:14;;;;;;;;;;;;;;;;;;5047740;28;20414;-88
2021/12/16 08:37:42;;;;;;;;;;;;;;;;;;5050433;28;19927;-87
2021/12/16 08:40:09;;;;;;;;;;;;;;;;;;5066724;28;20377;-86
2021/12/16 08:45:54;;;;;;;;;;;;;;;;;;5050043;28;19924;-80
2021/12/16 08:48:23;;;;;;;;;;;;;;;;;;5047523;28;19924;-80
2021/12/16 08:50:54;;;;;;;;;;;;;;;;;;5048378;28;19928;-80
2021/12/16 08:53:25;;;;;;;;;;;;;;;;;;5047619;28;19925;-80
2021/12/16 08:58:49;;;;;;;;;;;;;;;;;;5052986;28;19932;-81
2021/12/16 09:01:16;;;;;;;;;;;;;;;;;;5045276;28;19916;-80
2021/12/16 09:03:41;;;;;;;;;;;;;;;;;;5043352;28;19917;-80
2021/12/16 09:06:08;;;;;;;;;;;;;;;;;;5052611;28;19917;-79
2021/12/16 09:08:33;;;;;;;;;;;;;;;;;;5044941;28;19921;-79
2021/12/16 09:10:58;;;;;;;;;;;;;;;;;;5044665;28;19936;-81
2021/12/16 09:13:35;;;;;;;;;;;;;;;;;;5052394;28;19917;-81
2021/12/16 09:16:02;;;;;;;;;;;;;;;;;;5034877;28;19928;-81
2021/12/16 09:18:29;;;;;;;;;;;;;;;;;;5038855;28;20004;-83
2021/12/16 09:20:55;;;;;;;;;;;;;;;;;;5053158;28;19939;-82
2021/12/16 09:23:20;;;;;;;;;;;;;;;;;;5053252;28;20360;-82
2021/12/16 09:25:46;;;;;;;;;;;;;;;;;;5054097;28;20342;-83
2021/12/16 09:28:12;;;;;;;;;;;;;;;;;;5047886;28;19916;-82
2021/12/16 09:30:37;;;;;;;;;;;;;;;;;;5040163;28;20357;-83
2021/12/16 09:33:04;;;;;;;;;;;;;;;;;;5043280;28;20431;-82
2021/12/16 09:35:34;;;;;;;;;;;;;;;;;;5079454;28;19931;-83
2021/12/16 09:38:02;;;;;;;;;;;;;;;;;;5046441;28;19928;-83
2021/12/16 09:40:29;;;;;;;;;;;;;;;;;;5036909;28;19961;-83
2021/12/16 09:46:14;;;;;;;;;;;;;;;;;;5065469;28;19928;-83
2021/12/16 09:48:39;;;;;;;;;;;;;;;;;;5057370;28;19982;-83
2021/12/16 09:51:06;;;;;;;;;;;;;;;;;;5044793;28;19925;-83
2021/12/16 09:53:33;;;;;;;;;;;;;;;;;;5039393;28;19913;-83
2021/12/16 09:56:01;;;;;;;;;;;;;;;;;;5034664;28;20361;-83
2021/12/16 09:58:28;;;;;;;;;;;;;;;;;;5034426;28;19917;-84
2021/12/16 10:00:53;;;;;;;;;;;;;;;;;;5036035;28;19913;-84
2021/12/16 10:03:19;;;;;;;;;;;;;;;;;;5036978;28;20439;-83
2021/12/16 10:05:44;;;;;;;;;;;;;;;;;;5042659;28;20383;-83
2021/12/16 10:08:12;;;;;;;;;;;;;;;;;;5066627;28;19917;-83
2021/12/16 10:10:37;;;;;;;;;;;;;;;;;;5039079;28;20250;-83
2021/12/16 10:13:06;;;;;;;;;;;;;;;;;;5044799;28;19917;-83
2021/12/16 10:18:05;;;;;;;;;;;;;;;;;;5046517;28;19956;-84
2021/12/16 10:20:48;;;;;;;;;;;;;;;;;;5080922;28;19964;-84
2021/12/16 10:23:15;;;;;;;;;;;;;;;;;;5081796;28;19917;-83
2021/12/16 10:25:42;;;;;;;;;;;;;;;;;;5050650;28;19913;-83
2021/12/16 10:28:17;;;;;;;;;;;;;;;;;;5049893;28;20360;-84
2021/12/16 10:30:50;;;;;;;;;;;;;;;;;;5041395;28;20004;-83
2021/12/16 10:33:27;;;;;;;;;;;;;;;;;;5039421;28;19925;-84
2021/12/16 10:36:18;;;;;;;;;;;;;;;;;;5080678;28;20325;-87
2021/12/16 10:38:43;;;;;;;;;;;;;;;;;;5052049;28;19933;-83
2021/12/16 10:41:17;;;;;;;;;;;;;;;;;;5043275;28;19921;-82
2021/12/16 10:44:02;;;;;;;;;;;;;;;;;;5044706;28;20000;-84
2021/12/16 10:46:30;;;;;;;;;;;;;;;;;;5061599;28;20354;-85
2021/12/16 10:48:57;;;;;;;;;;;;;;;;;;5051279;28;20366;-87
2021/12/16 10:51:26;;;;;;;;;;;;;;;;;;5048397;28;19927;-83
2021/12/16 10:54:12;;;;;;;;;;;;;;;;;;5050997;28;20018;-84
2021/12/16 10:56:43;;;;;;;;;;;;;;;;;;5044053;28;20309;-85
2021/12/16 10:59:08;;;;;;;;;;;;;;;;;;5067841;28;20035;-86
2021/12/16 11:01:51;;;;;;;;;;;;;;;;;;5048789;28;20413;-86
2021/12/16 11:04:37;;;;;;;;;;;;;;;;;;5054446;28;19955;-81
2021/12/16 11:07:14;;;;;;;;;;;;;;;;;;5047210;28;19952;-85
2021/12/16 11:09:47;;;;;;;;;;;;;;;;;;5060609;28;19979;-82
2021/12/16 11:12:12;;;;;;;;;;;;;;;;;;5055969;28;20466;-82
2021/12/16 11:14:42;;;;;;;;;;;;;;;;;;5049834;28;19925;-83
2021/12/16 11:17:08;;;;;;;;;;;;;;;;;;5059918;28;20388;-83
2021/12/16 11:19:49;;;;;;;;;;;;;;;;;;5042429;28;20290;-84
2021/12/16 11:25:32;;;;;;;;;;;;;;;;;;5044836;28;19986;-85
2021/12/16 11:31:08;;;;;;;;;;;;;;;;;;5040188;28;19932;-84
2021/12/16 11:33:56;;;;;;;;;;;;;;;;;;5045674;28;20003;-84
2021/12/16 11:39:29;;;;;;;;;;;;;;;;;;5034525;28;20416;-83
2021/12/16 11:48:13;;;;;;;;;;;;;;;;;;5063881;28;20007;-82
2021/12/16 11:50:44;;;;;;;;;;;;;;;;;;5090425;28;19931;-82
2021/12/16 12:08:28;;;;;;;;;;;;;;;;;;5090207;28;20001;-83
2021/12/16 12:11:16;;;;;;;;;;;;;;;;;;5074207;28;19926;-83
2021/12/16 12:17:02;;;;;;;;;;;;;;;;;;;;;
2021/12/16 12:29:27;;;;;;;;;;;;;;;;;;5047770;28;20440;-84
2021/12/16 12:38:30;;;;;;;;;;;;;;;;;;5008177;28;19949;-83
2021/12/16 12:44:29;;;;;;;;;;;;;;;;;;4974266;28;19918;-82
2021/12/16 12:50:36;;;;;;;;;;;;;;;;;;4952722;28;19922;-83
2021/12/16 12:56:29;;;;;;;;;;;;;;;;;;;;;
2021/12/16 12:59:16;;;;;;;;;;;;;;;;;;;;;
2021/12/16 13:11:29;;;;;;;;;;;;;;;;;;4898740;29;19934;-82
2021/12/16 13:14:16;;;;;;;;;;;;;;;;;;4895303;29;20030;-84
2021/12/16 13:27:44;;;;;;;;;;;;;;;;;;4991840;28;20390;-82
2021/12/16 13:31:03;;;;;;;;;;;;;;;;;;4992102;28;19929;-83
2021/12/16 13:33:54;;;;;;;;;;;;;;;;;;5010196;28;19928;-83
2021/12/16 13:36:28;;;;;;;;;;;;;;;;;;5057325;28;19917;-81
2021/12/16 13:38:54;;;;;;;;;;;;;;;;;;5051668;28;20011;-83
2021/12/16 13:41:30;;;;;;;;;;;;;;;;;;5066991;28;19959;-83
2021/12/16 13:43:56;;;;;;;;;;;;;;;;;;5067994;28;19926;-83
2021/12/16 13:58:19;;;;;;;;;;;;;;;;;;5055615;28;19978;-82
2021/12/16 14:03:48;;;;;;;;;;;;;;;;;;5065278;28;19979;-91
2021/12/16 14:06:27;;;;;;;;;;;;;;;;;;5065142;28;19935;-87
2021/12/16 14:08:55;;;;;;;;;;;;;;;;;;5068596;28;19996;-87
2021/12/16 14:14:30;;;;;;;;;;;;;;;;;;5051708;28;19917;-86
2021/12/16 14:17:11;;;;;;;;;;;;;;;;;;5050773;28;19916;-85
2021/12/16 14:25:26;;;;;;;;;;;;;;;;;;5052737;28;20264;-86
2021/12/16 14:39:15;;;;;;;;;;;;;;;;;;5051463;28;19924;-86
2021/12/16 14:53:33;;;;;;;;;;;;;;;;;;5020167;28;19971;-88
2021/12/16 14:56:03;;;;;;;;;;;;;;;;;;5012346;28;19956;-85
2021/12/16 14:58:29;;;;;;;;;;;;;;;;;;5072430;28;20335;-83
2021/12/16 15:01:03;;;;;;;;;;;;;;;;;;5072042;28;19952;-85
2021/12/16 15:03:33;;;;;;;;;;;;;;;;;;5053658;28;19927;-83
2021/12/16 15:06:00;;;;;;;;;;;;;;;;;;5076306;28;19924;-83
2021/12/16 15:08:36;;;;;;;;;;;;;;;;;;5077978;28;19946;-83
2021/12/16 15:11:03;;;;;;;;;;;;;;;;;;5075401;28;19920;-83
2021/12/16 15:13:42;;;;;;;;;;;;;;;;;;5095498;28;20329;-83
2021/12/16 15:16:40;;;;;;;;;;;;;;;;;;5094843;28;19926;-83
2021/12/16 15:36:36;;;;;;;;;;;;;;;;;;5095002;28;19931;-83
2021/12/16 15:44:46;;;;;;;;;;;;;;;;;;5094332;28;20058;-81
2021/12/16 15:47:14;;;;;;;;;;;;;;;;;;5077707;28;19934;-84
2021/12/16 15:49:39;;;;;;;;;;;;;;;;;;5095259;28;20296;-84
2021/12/16 15:52:21;;;;;;;;;;;;;;;;;;5095082;28;19935;-87
2021/12/16 15:54:52;;;;;;;;;;;;;;;;;;5077188;28;20030;-87
2021/12/16 15:57:31;;;;;;;;;;;;;;;;;;5092854;28;19920;-88
2021/12/16 16:00:18;;;;;;;;;;;;;;;;;;5029000;28;19913;-90
2021/12/16 16:02:46;;;;;;;;;;;;;;;;;;5037442;28;20072;-90
2021/12/16 16:05:14;;;;;;;;;;;;;;;;;;5036287;28;20023;-88
2021/12/16 16:07:40;;;;;;;;;;;;;;;;;;5024037;28;19972;-88
2021/12/16 16:10:06;;;;;;;;;;;;;;;;;;5017914;28;19963;-89
2021/12/16 16:12:33;;;;;;;;;;;;;;;;;;5038136;28;20316;-88
2021/12/16 16:15:18;;;;;;;;;;;;;;;;;;5015495;28;19947;-88
2021/12/16 16:17:59;;;;;;;;;;;;;;;;;;4996805;28;19928;-88
2021/12/16 16:20:27;;;;;;;;;;;;;;;;;;5014007;28;20513;-88
2021/12/16 16:23:06;;;;;;;;;;;;;;;;;;5031516;28;19925;-88
2021/12/16 16:25:38;;;;;;;;;;;;;;;;;;5009943;28;19924;-89
2021/12/16 16:28:04;;;;;;;;;;;;;;;;;;5025877;28;20246;-90
2021/12/16 16:30:29;;;;;;;;;;;;;;;;;;5042852;28;20015;-88
2021/12/16 16:33:05;;;;;;;;;;;;;;;;;;5073110;28;19966;-88
2021/12/16 16:35:30;;;;;;;;;;;;;;;;;;5088399;28;19920;-87
2021/12/16 16:38:12;;;;;;;;;;;;;;;;;;5067393;28;19923;-88
2021/12/16 16:40:38;;;;;;;;;;;;;;;;;;5091578;28;19981;-86
2021/12/16 16:46:15;;;;;;;;;;;;;;;;;;5067025;28;19923;-85
2021/12/16 16:48:48;;;;;;;;;;;;;;;;;;5090078;28;19916;-86
2021/12/16 16:51:22;;;;;;;;;;;;;;;;;;5077759;28;19920;-84
2021/12/16 16:53:52;;;;;;;;;;;;;;;;;;5071495;28;20337;-82
2021/12/16 16:56:31;;;;;;;;;;;;;;;;;;5091115;28;19916;-80
2021/12/16 16:59:05;;;;;;;;;;;;;;;;;;5074582;28;20365;-85
2021/12/16 17:01:30;;;;;;;;;;;;;;;;;;5093131;28;19923;-83
2021/12/16 17:03:56;;;;;;;;;;;;;;;;;;5078565;28;19916;-83
2021/12/16 17:06:21;;;;;;;;;;;;;;;;;;5074599;28;19924;-84
2021/12/16 17:08:52;;;;;;;;;;;;;;;;;;5093566;28;19919;-84
2021/12/16 17:11:21;;;;;;;;;;;;;;;;;;5065214;28;19924;-83
2021/12/16 17:19:17;;;;;;;;;;;;;;;;;;5090753;28;19927;-84
2021/12/16 17:21:47;;;;;;;;;;;;;;;;;;5092566;28;19919;-84
2021/12/16 17:24:16;;;;;;;;;;;;;;;;;;5092400;28;19916;-86
2021/12/16 17:26:48;;;;;;;;;;;;;;;;;;5072967;28;19923;-85
2021/12/16 17:29:35;;;;;;;;;;;;;;;;;;5089589;28;19952;-87
2021/12/16 17:32:39;;;;;;;;;;;;;;;;;;5067417;28;20363;-85
2021/12/16 17:35:26;;;;;;;;;;;;;;;;;;5005243;28;19932;-83
2021/12/16 17:41:13;;;;;;;;;;;;;;;;;;4996771;28;19956;-85
2021/12/16 17:43:44;;;;;;;;;;;;;;;;;;5006390;28;19913;-87
2021/12/16 17:46:16;;;;;;;;;;;;;;;;;;4995024;28;20329;-86
2021/12/16 17:48:47;;;;;;;;;;;;;;;;;;4976479;28;19933;-86
2021/12/16 17:51:14;;;;;;;;;;;;;;;;;;4996281;28;19933;-84
2021/12/16 17:53:50;;;;;;;;;;;;;;;;;;4999511;28;19928;-84
2021/12/16 17:57:05;;;;;;;;;;;;;;;;;;5002562;28;19917;-85
2021/12/16 17:59:37;;;;;;;;;;;;;;;;;;5008127;28;19917;-87
2021/12/16 18:02:06;;;;;;;;;;;;;;;;;;4990154;28;19917;-86
2021/12/16 18:04:44;;;;;;;;;;;;;;;;;;5007508;28;19933;-84
2021/12/16 18:07:12;;;;;;;;;;;;;;;;;;5010334;28;19946;-84
2021/12/16 18:09:41;;;;;;;;;;;;;;;;;;5007462;28;20313;-87
2021/12/16 18:12:17;;;;;;;;;;;;;;;;;;5073454;28;19968;-87
2021/12/16 18:15:12;;;;;;;;;;;;;;;;;;5068088;28;19917;-85
2021/12/16 18:17:41;;;;;;;;;;;;;;;;;;5057285;28;19916;-87
2021/12/16 18:20:21;;;;;;;;;;;;;;;;;;5053384;28;19917;-85
2021/12/16 18:22:48;;;;;;;;;;;;;;;;;;5037456;28;19916;-87
2021/12/16 18:25:16;;;;;;;;;;;;;;;;;;5049040;28;20249;-86
2021/12/16 18:27:57;;;;;;;;;;;;;;;;;;5037296;28;20028;-85
2021/12/16 18:37:03;;;;;;;;;;;;;;;;;;5068140;28;20011;-87
2021/12/16 18:40:10;;;;;;;;;;;;;;;;;;5063787;28;20348;-86
2021/12/16 18:42:46;;;;;;;;;;;;;;;;;;5017356;28;20043;-86
2021/12/16 18:45:15;;;;;;;;;;;;;;;;;;5077316;28;19995;-86
2021/12/16 18:47:56;;;;;;;;;;;;;;;;;;5067373;28;20261;-84
2021/12/16 18:56:27;;;;;;;;;;;;;;;;;;5061674;28;19943;-86
2021/12/16 18:59:06;;;;;;;;;;;;;;;;;;5068479;28;19920;-84
2021/12/16 19:01:37;;;;;;;;;;;;;;;;;;5072009;28;19923;-84
2021/12/16 19:04:03;;;;;;;;;;;;;;;;;;5051097;28;19984;-84
2021/12/16 19:06:29;;;;;;;;;;;;;;;;;;5078002;28;20074;-84
2021/12/16 19:08:56;;;;;;;;;;;;;;;;;;5095529;28;20388;-84
2021/12/16 19:14:33;;;;;;;;;;;;;;;;;;5095368;28;20335;-85
2021/12/16 19:16:59;;;;;;;;;;;;;;;;;;5088823;28;19912;-83
2021/12/16 19:19:26;;;;;;;;;;;;;;;;;;5094772;28;20111;-84
2021/12/16 19:21:52;;;;;;;;;;;;;;;;;;5054113;28;20284;-82
2021/12/16 19:24:22;;;;;;;;;;;;;;;;;;5092250;28;19916;-82
2021/12/16 19:26:47;;;;;;;;;;;;;;;;;;5075456;28;19923;-83
2021/12/16 19:29:13;;;;;;;;;;;;;;;;;;5095137;28;20269;-84
2021/12/16 19:31:38;;;;;;;;;;;;;;;;;;5061555;28;19937;-83
2021/12/16 19:34:06;;;;;;;;;;;;;;;;;;5094871;28;19919;-83
2021/12/16 19:36:34;;;;;;;;;;;;;;;;;;5095485;28;19916;-82
2021/12/16 19:38:59;;;;;;;;;;;;;;;;;;5077221;28;19932;-83
2021/12/16 19:41:27;;;;;;;;;;;;;;;;;;5098242;28;20007;-84
2021/12/16 19:43:53;;;;;;;;;;;;;;;;;;5094874;28;19930;-83
2021/12/16 19:46:20;;;;;;;;;;;;;;;;;;5094696;28;19945;-82
2021/12/16 19:48:54;;;;;;;;;;;;;;;;;;5094511;28;20265;-82
2021/12/16 19:51:20;;;;;;;;;;;;;;;;;;5089289;28;19920;-82
2021/12/16 19:53:46;;;;;;;;;;;;;;;;;;5090664;28;19916;-83
2021/12/16 19:56:11;;;;;;;;;;;;;;;;;;5075305;28;19920;-83
2021/12/16 19:58:37;;;;;;;;;;;;;;;;;;5077746;28;19916;-83
2021/12/16 20:01:13;;;;;;;;;;;;;;;;;;5075721;28;19912;-83
2021/12/16 20:03:40;;;;;;;;;;;;;;;;;;5085133;28;19919;-83
2021/12/16 20:06:07;;;;;;;;;;;;;;;;;;5094660;28;20411;-83
2021/12/16 20:08:36;;;;;;;;;;;;;;;;;;5093363;28;19974;-83
2021/12/16 20:11:02;;;;;;;;;;;;;;;;;;5078808;28;19938;-84
2021/12/16 20:13:41;;;;;;;;;;;;;;;;;;5076174;28;19916;-83
2021/12/16 20:16:11;;;;;;;;;;;;;;;;;;5077983;28;19916;-82
2021/12/16 20:18:38;;;;;;;;;;;;;;;;;;5094318;28;19916;-82
2021/12/16 20:21:11;;;;;;;;;;;;;;;;;;5093252;28;19963;-85
2021/12/16 20:23:39;;;;;;;;;;;;;;;;;;5090669;28;19947;-84
2021/12/16 20:26:17;;;;;;;;;;;;;;;;;;5092589;28;19983;-85
2021/12/16 20:28:45;;;;;;;;;;;;;;;;;;5066256;28;20256;-87
2021/12/16 20:31:12;;;;;;;;;;;;;;;;;;5094120;28;19916;-85
2021/12/16 20:33:57;;;;;;;;;;;;;;;;;;5093070;28;19973;-85
2021/12/16 20:36:24;;;;;;;;;;;;;;;;;;5092918;28;19916;-83
2021/12/16 20:38:51;;;;;;;;;;;;;;;;;;5096457;28;19926;-84
2021/12/16 20:41:26;;;;;;;;;;;;;;;;;;5075168;28;19927;-85
2021/12/16 20:43:53;;;;;;;;;;;;;;;;;;5090285;28;20088;-82
2021/12/16 20:46:25;;;;;;;;;;;;;;;;;;5057759;28;19916;-86
2021/12/16 20:48:54;;;;;;;;;;;;;;;;;;5092910;28;19924;-85
2021/12/16 20:51:28;;;;;;;;;;;;;;;;;;5093364;28;20345;-86
2021/12/16 20:53:53;;;;;;;;;;;;;;;;;;5075065;28;19916;-85
2021/12/16 20:56:18;;;;;;;;;;;;;;;;;;5074586;28;19923;-85
2021/12/16 20:58:49;;;;;;;;;;;;;;;;;;5093042;28;19920;-85
2021/12/16 21:01:17;;;;;;;;;;;;;;;;;;5092822;28;19989;-87
2021/12/16 21:03:42;;;;;;;;;;;;;;;;;;5093264;28;20325;-85
2021/12/16 21:06:10;;;;;;;;;;;;;;;;;;5075388;28;20035;-85
2021/12/16 21:08:35;;;;;;;;;;;;;;;;;;5092551;28;20383;-86
2021/12/16 21:11:01;;;;;;;;;;;;;;;;;;5092847;28;19920;-85
2021/12/16 21:13:27;;;;;;;;;;;;;;;;;;5093202;28;20320;-85
2021/12/16 21:15:53;;;;;;;;;;;;;;;;;;5092690;28;19916;-82
2021/12/16 21:18:19;;;;;;;;;;;;;;;;;;5092561;28;19916;-84
2021/12/16 21:20:47;;;;;;;;;;;;;;;;;;5092957;28;19931;-85
2021/12/16 21:23:12;;;;;;;;;;;;;;;;;;5092447;28;19916;-85
2021/12/16 21:25:38;;;;;;;;;;;;;;;;;;5092957;28;19927;-84
2021/12/16 21:28:05;;;;;;;;;;;;;;;;;;5074750;28;19916;-85
2021/12/16 21:30:35;;;;;;;;;;;;;;;;;;5094041;28;19943;-84
2021/12/16 21:33:01;;;;;;;;;;;;;;;;;;5092364;28;19916;-84
2021/12/16 21:35:28;;;;;;;;;;;;;;;;;;5092985;28;19923;-83
2021/12/16 21:37:56;;;;;;;;;;;;;;;;;;5089443;28;19942;-84
2021/12/16 21:40:23;;;;;;;;;;;;;;;;;;5067383;28;19927;-84
2021/12/16 21:42:48;;;;;;;;;;;;;;;;;;5075322;28;20375;-85
2021/12/16 21:45:29;;;;;;;;;;;;;;;;;;5068616;28;19951;-86
2021/12/16 21:47:54;;;;;;;;;;;;;;;;;;5088701;28;20059;-86
2021/12/16 21:50:26;;;;;;;;;;;;;;;;;;5069179;28;19920;-86
2021/12/16 21:52:52;;;;;;;;;;;;;;;;;;5086576;28;20011;-86
2021/12/16 21:55:17;;;;;;;;;;;;;;;;;;5069499;28;19984;-85
2021/12/16 21:57:43;;;;;;;;;;;;;;;;;;5085151;28;19978;-87
2021/12/16 22:00:12;;;;;;;;;;;;;;;;;;5087320;28;19920;-87
2021/12/16 22:02:39;;;;;;;;;;;;;;;;;;5069086;28;20424;-87
2021/12/16 22:05:05;;;;;;;;;;;;;;;;;;5087769;28;19981;-86
2021/12/16 22:07:30;;;;;;;;;;;;;;;;;;5088771;28;19920;-87
2021/12/16 22:09:58;;;;;;;;;;;;;;;;;;5089925;28;19965;-87
2021/12/16 22:12:26;;;;;;;;;;;;;;;;;;5090847;28;19967;-87
2021/12/16 22:14:52;;;;;;;;;;;;;;;;;;5075329;28;19973;-87
2021/12/16 22:17:17;;;;;;;;;;;;;;;;;;5088505;28;19916;-87
2021/12/16 22:19:45;;;;;;;;;;;;;;;;;;5069714;28;20004;-86
2021/12/16 22:22:10;;;;;;;;;;;;;;;;;;5072533;28;19917;-86
2021/12/16 22:24:39;;;;;;;;;;;;;;;;;;5079577;28;20307;-87
2021/12/16 22:27:06;;;;;;;;;;;;;;;;;;5079196;28;20332;-86
2021/12/16 22:29:32;;;;;;;;;;;;;;;;;;5079499;28;19959;-88
2021/12/16 22:31:58;;;;;;;;;;;;;;;;;;5079233;28;19954;-87
2021/12/16 22:34:24;;;;;;;;;;;;;;;;;;5079451;28;19966;-87
2021/12/16 22:36:58;;;;;;;;;;;;;;;;;;5093440;28;19927;-86
2021/12/16 22:39:24;;;;;;;;;;;;;;;;;;5096511;28;19916;-86
2021/12/16 22:41:50;;;;;;;;;;;;;;;;;;5079364;28;19912;-86
2021/12/16 22:44:16;;;;;;;;;;;;;;;;;;5078622;28;19912;-86
2021/12/16 22:46:44;;;;;;;;;;;;;;;;;;5077263;28;19963;-87
2021/12/16 22:49:09;;;;;;;;;;;;;;;;;;5076215;28;19916;-86
2021/12/16 22:51:35;;;;;;;;;;;;;;;;;;5096249;28;19920;-86
2021/12/16 22:54:00;;;;;;;;;;;;;;;;;;5078837;28;19923;-86
2021/12/16 22:56:28;;;;;;;;;;;;;;;;;;5095268;28;19977;-86
2021/12/16 22:58:55;;;;;;;;;;;;;;;;;;5097212;28;19920;-86
2021/12/16 23:01:21;;;;;;;;;;;;;;;;;;5097129;28;19916;-86
2021/12/16 23:03:47;;;;;;;;;;;;;;;;;;5095127;28;19939;-86